Time,TemperatureF,DewpointF,PressureIn,WindDirection,WindDirectionDegrees,WindSpeedMPH,WindSpeedGustMPH,Humidity,HourlyPrecipIn,Conditions,Clouds,dailyrainin,SoftwareType,DateUTC
2013-01-20 00:02:00,-10.4,-14.4,30.32,NW,323,4.0,11.0,82,0.00,,---,0.00,VWS V13.01,2013-01-20 06:02:00,
2013-01-20 00:07:00,-10.5,-14.5,30.32,NW,322,12.0,15.0,82,0.00,,---,0.00,VWS V13.01,2013-01-20 06:07:00,
2013-01-20 00:12:00,-10.5,-14.5,30.32,NNW,341,13.0,17.0,82,0.00,,---,0.00,VWS V13.01,2013-01-20 06:12:00,
2013-01-20 00:17:00,-10.6,-14.6,30.34,NNW,329,8.0,13.0,82,0.00,,---,0.00,VWS V13.01,2013-01-20 06:17:00,
2013-01-20 00:23:00,-10.7,-14.7,30.34,NW,321,4.0,13.0,82,0.00,,---,0.00,VWS V13.01,2013-01-20 06:23:00,
2013-01-20 00:28:00,-10.7,-14.7,30.34,North,355,6.0,15.0,82,0.00,,---,0.00,VWS V13.01,2013-01-20 06:28:00,
2013-01-20 00:33:00,-10.8,-14.8,30.34,NNW,338,8.0,13.0,82,0.00,,---,0.00,VWS V13.01,2013-01-20 06:33:00,
2013-01-20 00:38:00,-10.9,-14.9,30.34,WNW,294,6.0,14.0,82,0.00,,---,0.00,VWS V13.01,2013-01-20 06:38:00,
2013-01-20 00:43:00,-10.9,-14.9,30.34,NNW,338,11.0,18.0,82,0.00,,---,0.00,VWS V13.01,2013-01-20 06:43:00,
2013-01-20 00:48:00,-11.1,-15.1,30.35,WNW,294,10.0,12.0,82,0.00,,---,0.00,VWS V13.01,2013-01-20 06:48:00,
2013-01-20 00:53:00,-11.2,-15.1,30.35,NW,317,11.0,15.0,82,0.00,,---,0.00,VWS V13.01,2013-01-20 06:53:00,
2013-01-20 00:58:00,-11.3,-15.2,30.35,North,5,6.0,20.0,82,0.00,,---,0.00,VWS V13.01,2013-01-20 06:58:00,
2013-01-20 01:03:00,-11.4,-15.4,30.36,WNW,302,4.0,14.0,82,0.00,,---,0.00,VWS V13.01,2013-01-20 07:03:00,
2013-01-20 01:09:00,-11.6,-15.5,30.36,NW,323,10.0,18.0,82,0.00,,---,0.00,VWS V13.01,2013-01-20 07:09:00,
2013-01-20 01:14:00,-11.7,-15.6,30.36,NNW,334,11.0,18.0,82,0.00,,---,0.00,VWS V13.01,2013-01-20 07:14:00,
2013-01-20 01:19:00,-11.9,-15.8,30.41,WNW,302,4.0,16.0,82,0.00,,---,0.00,VWS V13.01,2013-01-20 07:19:00,
2013-01-20 01:24:00,-12.0,-15.9,30.41,NNW,342,9.0,16.0,82,0.00,,---,0.00,VWS V13.01,2013-01-20 07:24:00,
2013-01-20 01:30:00,-12.2,-16.1,30.41,NW,323,5.0,16.0,82,0.00,,---,0.00,VWS V13.01,2013-01-20 07:30:00,
2013-01-20 01:35:00,-12.3,-16.5,30.42,NW,324,8.0,15.0,81,0.00,,---,0.00,VWS V13.01,2013-01-20 07:35:00,
2013-01-20 01:40:00,-12.3,-16.5,30.42,NW,317,5.0,18.0,81,0.00,,---,0.00,VWS V13.01,2013-01-20 07:40:00,
2013-01-20 01:46:00,-12.4,-16.6,30.43,WSW,257,6.0,18.0,81,0.00,,---,0.00,VWS V13.01,2013-01-20 07:46:00,
2013-01-20 01:51:00,-12.5,-16.7,30.43,North,350,8.0,15.0,81,0.00,,---,0.00,VWS V13.01,2013-01-20 07:51:00,
2013-01-20 01:56:00,-12.5,-16.7,30.43,NW,323,5.0,15.0,81,0.00,,---,0.00,VWS V13.01,2013-01-20 07:56:00,
2013-01-20 02:01:00,-12.6,-16.8,30.44,NNW,343,2.0,15.0,81,0.00,,---,0.00,VWS V13.01,2013-01-20 08:01:00,
2013-01-20 02:07:00,-12.7,-16.9,30.44,WNW,292,7.0,14.0,81,0.00,,---,0.00,VWS V13.01,2013-01-20 08:07:00,
2013-01-20 02:12:00,-12.8,-17.0,30.44,North,355,2.0,14.0,81,0.00,,---,0.00,VWS V13.01,2013-01-20 08:12:00,
2013-01-20 02:17:00,-12.9,-17.1,30.48,NW,317,9.0,12.0,81,0.00,,---,0.00,VWS V13.01,2013-01-20 08:17:00,
2013-01-20 02:22:00,-13.0,-17.1,30.48,WNW,288,10.0,16.0,81,0.00,,---,0.00,VWS V13.01,2013-01-20 08:22:00,
2013-01-20 02:28:00,-13.0,-17.1,30.48,NW,315,9.0,16.0,81,0.00,,---,0.00,VWS V13.01,2013-01-20 08:28:00,
2013-01-20 02:33:00,-13.1,-17.2,30.48,WNW,285,10.0,13.0,81,0.00,,---,0.00,VWS V13.01,2013-01-20 08:33:00,
2013-01-20 02:38:00,-13.3,-17.5,30.48,NW,320,3.0,14.0,81,0.00,,---,0.00,VWS V13.01,2013-01-20 08:38:00,
2013-01-20 02:43:00,-13.4,-17.5,30.48,NNW,337,4.0,14.0,81,0.00,,---,0.00,VWS V13.01,2013-01-20 08:43:00,
2013-01-20 02:49:00,-13.5,-17.6,30.50,NW,316,4.0,9.0,81,0.00,,---,0.00,VWS V13.01,2013-01-20 08:49:00,
2013-01-20 02:54:00,-13.6,-17.7,30.50,WNW,296,6.0,12.0,81,0.00,,---,0.00,VWS V13.01,2013-01-20 08:54:00,
2013-01-20 02:59:00,-13.6,-17.7,30.50,WNW,286,6.0,14.0,81,0.00,,---,0.00,VWS V13.01,2013-01-20 08:59:00,
2013-01-20 03:04:00,-13.7,-17.8,30.49,NW,309,5.0,13.0,81,0.00,,---,0.00,VWS V13.01,2013-01-20 09:04:00,
2013-01-20 03:10:00,-13.8,-17.9,30.49,NW,320,6.0,13.0,81,0.00,,---,0.00,VWS V13.01,2013-01-20 09:10:00,
2013-01-20 03:15:00,-13.9,-18.0,30.49,NW,326,10.0,13.0,81,0.00,,---,0.00,VWS V13.01,2013-01-20 09:15:00,
2013-01-20 03:20:00,-14.0,-18.1,30.55,NNW,332,3.0,17.0,81,0.00,,---,0.00,VWS V13.01,2013-01-20 09:20:00,
2013-01-20 03:25:00,-14.0,-18.1,30.55,North,350,2.0,17.0,81,0.00,,---,0.00,VWS V13.01,2013-01-20 09:25:00,
2013-01-20 03:30:00,-14.1,-18.2,30.55,NNW,328,4.0,17.0,81,0.00,,---,0.00,VWS V13.01,2013-01-20 09:30:00,
2013-01-20 03:35:00,-14.2,-18.3,30.55,NNW,329,13.0,16.0,81,0.00,,---,0.00,VWS V13.01,2013-01-20 09:35:00,
2013-01-20 03:40:00,-14.3,-18.4,30.55,North,355,9.0,18.0,81,0.00,,---,0.00,VWS V13.01,2013-01-20 09:40:00,
2013-01-20 03:46:00,-14.4,-18.5,30.56,NW,326,15.0,18.0,81,0.00,,---,0.00,VWS V13.01,2013-01-20 09:46:00,
2013-01-20 03:51:00,-14.5,-18.6,30.56,NW,314,11.0,14.0,81,0.00,,---,0.00,VWS V13.01,2013-01-20 09:51:00,
2013-01-20 03:57:00,-14.7,-18.8,30.56,NW,323,1.0,14.0,81,0.00,,---,0.00,VWS V13.01,2013-01-20 09:57:00,
2013-01-20 04:02:00,-14.7,-18.8,30.57,WNW,285,3.0,6.0,81,0.00,,---,0.00,VWS V13.01,2013-01-20 10:02:00,
2013-01-20 04:07:00,-14.8,-18.9,30.57,NW,326,0.0,9.0,81,0.00,,---,0.00,VWS V13.01,2013-01-20 10:07:00,
2013-01-20 04:12:00,-14.9,-19.0,30.57,WNW,285,1.0,9.0,81,0.00,,---,0.00,VWS V13.01,2013-01-20 10:12:00,
2013-01-20 04:18:00,-15.1,-19.2,30.62,WNW,297,2.0,6.0,81,0.00,,---,0.00,VWS V13.01,2013-01-20 10:18:00,
2013-01-20 04:23:00,-15.2,-19.5,30.62,WNW,300,4.0,11.0,80,0.00,,---,0.00,VWS V13.01,2013-01-20 10:23:00,
2013-01-20 04:28:00,-15.3,-19.6,30.62,WNW,298,2.0,11.0,80,0.00,,---,0.00,VWS V13.01,2013-01-20 10:28:00,
2013-01-20 04:33:00,-15.4,-19.7,30.64,WNW,298,4.0,10.0,80,0.00,,---,0.00,VWS V13.01,2013-01-20 10:33:00,
2013-01-20 04:38:00,-15.4,-19.7,30.64,NW,304,0.0,10.0,80,0.00,,---,0.00,VWS V13.01,2013-01-20 10:38:00,
2013-01-20 04:43:00,-15.5,-19.8,30.64,WSW,257,5.0,10.0,80,0.00,,---,0.00,VWS V13.01,2013-01-20 10:43:00,
2013-01-20 04:48:00,-15.6,-19.9,30.65,WNW,302,3.0,9.0,80,0.00,,---,0.00,VWS V13.01,2013-01-20 10:48:00,
2013-01-20 04:54:00,-15.6,-19.7,30.65,West,280,2.0,9.0,81,0.00,,---,0.00,VWS V13.01,2013-01-20 10:54:00,
2013-01-20 04:59:00,-15.7,-20.0,30.65,West,279,2.0,9.0,80,0.00,,---,0.00,VWS V13.01,2013-01-20 10:59:00,
2013-01-20 05:04:00,-15.7,-20.0,30.64,West,281,2.0,4.0,80,0.00,,---,0.00,VWS V13.01,2013-01-20 11:04:00,
2013-01-20 05:09:00,-15.8,-20.1,30.64,WNW,288,3.0,7.0,80,0.00,,---,0.00,VWS V13.01,2013-01-20 11:09:00,
2013-01-20 05:14:00,-15.8,-20.1,30.64,West,272,1.0,7.0,80,0.00,,---,0.00,VWS V13.01,2013-01-20 11:14:00,
2013-01-20 05:19:00,-15.9,-20.2,30.70,WNW,300,4.0,6.0,80,0.00,,---,0.00,VWS V13.01,2013-01-20 11:19:00,
2013-01-20 05:25:00,-15.9,-20.2,30.70,West,277,0.0,7.0,80,0.00,,---,0.00,VWS V13.01,2013-01-20 11:25:00,
2013-01-20 05:30:00,-16.0,-20.3,30.70,WNW,283,1.0,7.0,80,0.00,,---,0.00,VWS V13.01,2013-01-20 11:30:00,
2013-01-20 05:35:00,-16.1,-20.4,30.70,West,271,1.0,7.0,80,0.00,,---,0.00,VWS V13.01,2013-01-20 11:35:00,
2013-01-20 05:40:00,-16.1,-20.4,30.70,WNW,284,0.0,7.0,80,0.00,,---,0.00,VWS V13.01,2013-01-20 11:40:00,
2013-01-20 05:45:00,-16.2,-20.5,30.70,West,262,0.0,7.0,80,0.00,,---,0.00,VWS V13.01,2013-01-20 11:45:00,
2013-01-20 05:50:00,-16.3,-20.6,30.72,West,273,1.0,12.0,80,0.00,,---,0.00,VWS V13.01,2013-01-20 11:50:00,
2013-01-20 05:56:00,-16.3,-20.6,30.72,West,275,2.0,12.0,80,0.00,,---,0.00,VWS V13.01,2013-01-20 11:56:00,
2013-01-20 06:01:00,-16.5,-20.8,30.74,WNW,298,4.0,12.0,80,0.00,,---,0.00,VWS V13.01,2013-01-20 12:01:00,
2013-01-20 06:06:00,-16.5,-20.8,30.74,WNW,294,3.0,12.0,80,0.00,,---,0.00,VWS V13.01,2013-01-20 12:06:00,
2013-01-20 06:12:00,-16.5,-20.8,30.74,West,267,4.0,12.0,80,0.00,,---,0.00,VWS V13.01,2013-01-20 12:12:00,
2013-01-20 06:17:00,-16.5,-20.8,30.75,WNW,285,2.0,2.0,80,0.00,,---,0.00,VWS V13.01,2013-01-20 12:17:00,
2013-01-20 06:22:00,-16.5,-20.8,30.75,West,275,1.0,5.0,80,0.00,,---,0.00,VWS V13.01,2013-01-20 12:22:00,
2013-01-20 06:27:00,-16.5,-20.8,30.75,WSW,241,2.0,6.0,80,0.00,,---,0.00,VWS V13.01,2013-01-20 12:27:00,
2013-01-20 06:32:00,-16.5,-20.8,30.75,WNW,298,1.0,3.0,80,0.00,,---,0.00,VWS V13.01,2013-01-20 12:32:00,
2013-01-20 06:37:00,-16.6,-20.9,30.75,West,269,3.0,7.0,80,0.00,,---,0.00,VWS V13.01,2013-01-20 12:37:00,
2013-01-20 06:42:00,-16.6,-20.9,30.75,WSW,257,1.0,7.0,80,0.00,,---,0.00,VWS V13.01,2013-01-20 12:42:00,
2013-01-20 06:48:00,-16.6,-20.9,30.75,West,261,1.0,2.0,80,0.00,,---,0.00,VWS V13.01,2013-01-20 12:48:00,
2013-01-20 06:53:00,-16.6,-20.9,30.75,West,274,2.0,6.0,80,0.00,,---,0.00,VWS V13.01,2013-01-20 12:53:00,
2013-01-20 06:58:00,-16.6,-20.9,30.75,WSW,252,3.0,6.0,80,0.00,,---,0.00,VWS V13.01,2013-01-20 12:58:00,
2013-01-20 07:03:00,-16.6,-20.9,30.77,WSW,257,3.0,5.0,80,0.00,,---,0.00,VWS V13.01,2013-01-20 13:03:00,
2013-01-20 07:08:00,-16.6,-20.9,30.77,West,273,3.0,6.0,80,0.00,,---,0.00,VWS V13.01,2013-01-20 13:08:00,
2013-01-20 07:13:00,-16.6,-20.9,30.77,West,275,4.0,7.0,80,0.00,,---,0.00,VWS V13.01,2013-01-20 13:13:00,
2013-01-20 07:19:00,-16.6,-20.9,30.79,West,277,3.0,5.0,80,0.00,,---,0.00,VWS V13.01,2013-01-20 13:19:00,
2013-01-20 07:24:00,-16.6,-20.9,30.79,West,268,2.0,5.0,80,0.00,,---,0.00,VWS V13.01,2013-01-20 13:24:00,
2013-01-20 07:29:00,-16.6,-20.9,30.79,West,270,5.0,7.0,80,0.00,,---,0.00,VWS V13.01,2013-01-20 13:29:00,
2013-01-20 07:34:00,-16.6,-20.9,30.79,West,269,2.0,3.0,80,0.00,,---,0.00,VWS V13.01,2013-01-20 13:34:00,
2013-01-20 07:40:00,-16.6,-20.9,30.79,West,275,0.0,10.0,80,0.00,,---,0.00,VWS V13.01,2013-01-20 13:40:00,
2013-01-20 07:45:00,-16.6,-20.9,30.79,West,275,2.0,10.0,80,0.00,,---,0.00,VWS V13.01,2013-01-20 13:45:00,
2013-01-20 07:50:00,-16.6,-20.9,30.79,West,276,3.0,5.0,80,0.00,,---,0.00,VWS V13.01,2013-01-20 13:50:00,
2013-01-20 07:55:00,-16.6,-20.9,30.79,West,281,3.0,9.0,80,0.00,,---,0.00,VWS V13.01,2013-01-20 13:55:00,
2013-01-20 08:00:00,-16.6,-20.9,30.79,WNW,285,2.0,9.0,80,0.00,,---,0.00,VWS V13.01,2013-01-20 14:00:00,
2013-01-20 08:05:00,-16.5,-20.8,30.79,West,267,7.0,9.0,80,0.00,,---,0.00,VWS V13.01,2013-01-20 14:05:00,
2013-01-20 08:10:00,-16.5,-20.8,30.79,West,269,1.0,9.0,80,0.00,,---,0.00,VWS V13.01,2013-01-20 14:10:00,
2013-01-20 08:15:00,-16.5,-20.8,30.79,WNW,302,6.0,9.0,80,0.00,,---,0.00,VWS V13.01,2013-01-20 14:15:00,
2013-01-20 08:20:00,-16.4,-20.7,30.81,West,272,3.0,7.0,80,0.00,,---,0.00,VWS V13.01,2013-01-20 14:20:00,
2013-01-20 08:26:00,-16.3,-20.6,30.81,West,271,2.0,10.0,80,0.00,,---,0.00,VWS V13.01,2013-01-20 14:26:00,
2013-01-20 08:31:00,-16.3,-20.6,30.79,West,275,4.0,10.0,80,0.00,,---,0.00,VWS V13.01,2013-01-20 14:31:00,
2013-01-20 08:36:00,-16.2,-20.5,30.79,West,279,4.0,6.0,80,0.00,,---,0.00,VWS V13.01,2013-01-20 14:36:00,
2013-01-20 08:41:00,-16.1,-20.4,30.79,WNW,294,1.0,6.0,80,0.00,,---,0.00,VWS V13.01,2013-01-20 14:41:00,
2013-01-20 08:47:00,-16.0,-20.3,30.79,WNW,290,4.0,4.0,80,0.00,,---,0.00,VWS V13.01,2013-01-20 14:47:00,
2013-01-20 08:52:00,-15.9,-20.2,30.79,WNW,298,3.0,7.0,80,0.00,,---,0.00,VWS V13.01,2013-01-20 14:52:00,
2013-01-20 08:57:00,-15.8,-19.9,30.79,West,281,3.0,9.0,81,0.00,,---,0.00,VWS V13.01,2013-01-20 14:57:00,
2013-01-20 09:02:00,-15.6,-19.7,30.79,WNW,290,4.0,6.0,81,0.00,,---,0.00,VWS V13.01,2013-01-20 15:02:00,
2013-01-20 09:07:00,-15.5,-19.8,30.79,WNW,297,2.0,6.0,80,0.00,,---,0.00,VWS V13.01,2013-01-20 15:07:00,
2013-01-20 09:13:00,-15.4,-19.7,30.79,WNW,301,1.0,10.0,80,0.00,,---,0.00,VWS V13.01,2013-01-20 15:13:00,
2013-01-20 09:18:00,-15.3,-19.6,30.80,WNW,302,1.0,5.0,80,0.00,,---,0.00,VWS V13.01,2013-01-20 15:18:00,
2013-01-20 09:23:00,-15.1,-19.2,30.80,WNW,298,1.0,5.0,81,0.00,,---,0.00,VWS V13.01,2013-01-20 15:23:00,
2013-01-20 09:28:00,-15.0,-19.1,30.80,WNW,298,2.0,9.0,81,0.00,,---,0.00,VWS V13.01,2013-01-20 15:28:00,
2013-01-20 09:34:00,-15.0,-19.1,30.80,West,275,2.0,5.0,81,0.00,,---,0.00,VWS V13.01,2013-01-20 15:34:00,
2013-01-20 09:39:00,-14.8,-18.9,30.80,WNW,284,4.0,6.0,81,0.00,,---,0.00,VWS V13.01,2013-01-20 15:39:00,
2013-01-20 09:44:00,-14.7,-18.8,30.80,West,279,1.0,6.0,81,0.00,,---,0.00,VWS V13.01,2013-01-20 15:44:00,
2013-01-20 09:49:00,-14.5,-18.9,30.80,West,276,5.0,10.0,80,0.00,,---,0.00,VWS V13.01,2013-01-20 15:49:00,
2013-01-20 09:55:00,-14.5,-18.9,30.80,WNW,295,3.0,10.0,80,0.00,,---,0.00,VWS V13.01,2013-01-20 15:55:00,
2013-01-20 10:00:00,-14.3,-18.4,30.80,WNW,301,2.0,10.0,81,0.00,,---,0.00,VWS V13.01,2013-01-20 16:00:00,
2013-01-20 10:05:00,-14.0,-18.1,30.77,West,281,3.0,7.0,81,0.00,,---,0.00,VWS V13.01,2013-01-20 16:05:00,
2013-01-20 10:10:00,-13.8,-17.9,30.77,WNW,299,4.0,10.0,81,0.00,,---,0.00,VWS V13.01,2013-01-20 16:10:00,
2013-01-20 10:16:00,-13.7,-17.8,30.80,West,267,4.0,11.0,81,0.00,,---,0.00,VWS V13.01,2013-01-20 16:16:00,
2013-01-20 10:21:00,-13.5,-17.6,30.80,WNW,283,5.0,10.0,81,0.00,,---,0.00,VWS V13.01,2013-01-20 16:21:00,
2013-01-20 10:26:00,-13.3,-17.5,30.80,West,265,5.0,10.0,81,0.00,,---,0.00,VWS V13.01,2013-01-20 16:26:00,
2013-01-20 10:31:00,-13.0,-17.1,30.80,NNW,338,1.0,10.0,81,0.00,,---,0.00,VWS V13.01,2013-01-20 16:31:00,
2013-01-20 10:36:00,-12.6,-16.8,30.80,NW,311,1.0,7.0,81,0.00,,---,0.00,VWS V13.01,2013-01-20 16:36:00,
2013-01-20 10:42:00,-12.3,-16.5,30.80,WNW,294,6.0,9.0,81,0.00,,---,0.00,VWS V13.01,2013-01-20 16:42:00,
2013-01-20 10:47:00,-12.3,-16.5,30.79,West,279,3.0,5.0,81,0.00,,---,0.00,VWS V13.01,2013-01-20 16:47:00,
2013-01-20 10:52:00,-12.1,-16.3,30.79,WNW,298,1.0,8.0,81,0.00,,---,0.00,VWS V13.01,2013-01-20 16:52:00,
2013-01-20 10:57:00,-11.8,-16.0,30.79,WNW,294,3.0,10.0,81,0.00,,---,0.00,VWS V13.01,2013-01-20 16:57:00,
2013-01-20 11:03:00,-11.5,-15.4,30.79,NW,319,5.0,5.0,82,0.00,,---,0.00,VWS V13.01,2013-01-20 17:03:00,
2013-01-20 11:08:00,-11.3,-15.5,30.79,West,280,3.0,10.0,81,0.00,,---,0.00,VWS V13.01,2013-01-20 17:08:00,
2013-01-20 11:13:00,-10.8,-14.8,30.79,WNW,291,5.0,10.0,82,0.00,,---,0.00,VWS V13.01,2013-01-20 17:13:00,
2013-01-20 11:18:00,-10.4,-14.4,30.79,NW,311,2.0,7.0,82,0.00,,---,0.00,VWS V13.01,2013-01-20 17:18:00,
2013-01-20 11:24:00,-10.0,-14.0,30.79,NW,321,4.0,7.0,82,0.00,,---,0.00,VWS V13.01,2013-01-20 17:24:00,
2013-01-20 11:29:00,-9.9,-14.1,30.79,WSW,250,2.0,9.0,81,0.00,,---,0.00,VWS V13.01,2013-01-20 17:29:00,
2013-01-20 11:34:00,-9.6,-13.6,30.78,West,259,4.0,10.0,82,0.00,,---,0.00,VWS V13.01,2013-01-20 17:34:00,
2013-01-20 11:39:00,-9.4,-10.6,30.78,NW,317,4.0,10.0,94,0.00,,---,0.00,VWS V13.01,2013-01-20 17:39:00,
2013-01-20 11:45:00,-9.0,-13.0,30.78,NW,313,3.0,11.0,82,0.00,,---,0.00,VWS V13.01,2013-01-20 17:45:00,
2013-01-20 11:50:00,-8.8,-12.8,30.75,West,270,7.0,10.0,82,0.00,,---,0.00,VWS V13.01,2013-01-20 17:50:00,
2013-01-20 11:55:00,-8.5,-12.5,30.75,West,265,2.0,10.0,82,0.00,,---,0.00,VWS V13.01,2013-01-20 17:55:00,
2013-01-20 12:00:00,-8.1,-12.1,30.75,West,273,0.0,10.0,82,0.00,,---,0.00,VWS V13.01,2013-01-20 18:00:00,
2013-01-20 12:06:00,-7.9,-11.9,30.75,NW,307,5.0,9.0,82,0.00,,---,0.00,VWS V13.01,2013-01-20 18:06:00,
2013-01-20 12:11:00,-8.1,-12.1,30.75,NNW,333,1.0,9.0,82,0.00,,---,0.00,VWS V13.01,2013-01-20 18:11:00,
2013-01-20 12:16:00,-8.2,-12.2,30.74,NNW,335,7.0,11.0,82,0.00,,---,0.00,VWS V13.01,2013-01-20 18:16:00,
2013-01-20 12:21:00,-8.0,-12.0,30.74,NW,319,5.0,9.0,82,0.00,,---,0.00,VWS V13.01,2013-01-20 18:21:00,
2013-01-20 12:27:00,-7.5,-11.3,30.74,West,279,5.0,9.0,83,0.00,,---,0.00,VWS V13.01,2013-01-20 18:27:00,
2013-01-20 12:32:00,-7.2,-11.2,30.74,NW,310,4.0,6.0,82,0.00,,---,0.00,VWS V13.01,2013-01-20 18:32:00,
2013-01-20 12:37:00,-6.7,-10.5,30.74,NW,321,5.0,9.0,83,0.00,,---,0.00,VWS V13.01,2013-01-20 18:37:00,
2013-01-20 12:43:00,-6.6,-10.4,30.74,WNW,289,0.0,9.0,83,0.00,,---,0.00,VWS V13.01,2013-01-20 18:43:00,
2013-01-20 12:48:00,-6.5,-10.6,30.72,NW,310,2.0,5.0,82,0.00,,---,0.00,VWS V13.01,2013-01-20 18:48:00,
2013-01-20 12:53:00,-6.6,-10.6,30.72,NW,318,2.0,10.0,82,0.00,,---,0.00,VWS V13.01,2013-01-20 18:53:00,
2013-01-20 12:58:00,-6.4,-10.4,30.72,WNW,299,3.0,11.0,82,0.00,,---,0.00,VWS V13.01,2013-01-20 18:58:00,
2013-01-20 13:04:00,-6.4,-10.4,30.70,WNW,294,9.0,9.0,82,0.00,,---,0.00,VWS V13.01,2013-01-20 19:04:00,
2013-01-20 13:09:00,-6.5,-10.6,30.70,West,269,3.0,10.0,82,0.00,,---,0.00,VWS V13.01,2013-01-20 19:09:00,
2013-01-20 13:14:00,-6.1,-9.9,30.70,West,271,3.0,10.0,83,0.00,,---,0.00,VWS V13.01,2013-01-20 19:14:00,
2013-01-20 13:19:00,-5.9,-10.0,30.72,WNW,286,0.0,10.0,82,0.00,,---,0.00,VWS V13.01,2013-01-20 19:19:00,
2013-01-20 13:25:00,-5.7,-9.8,30.72,WNW,288,1.0,12.0,82,0.00,,---,0.00,VWS V13.01,2013-01-20 19:25:00,
2013-01-20 13:30:00,-5.5,-9.6,30.72,WNW,300,11.0,12.0,82,0.00,,---,0.00,VWS V13.01,2013-01-20 19:30:00,
2013-01-20 13:35:00,-5.5,-9.6,30.71,West,262,4.0,13.0,82,0.00,,---,0.00,VWS V13.01,2013-01-20 19:35:00,
2013-01-20 13:40:00,-5.6,-9.7,30.71,West,261,7.0,13.0,82,0.00,,---,0.00,VWS V13.01,2013-01-20 19:40:00,
2013-01-20 13:46:00,-5.7,-9.8,30.71,WSW,242,4.0,13.0,82,0.00,,---,0.00,VWS V13.01,2013-01-20 19:46:00,
2013-01-20 13:51:00,-5.7,-9.8,30.71,WNW,292,2.0,14.0,82,0.00,,---,0.00,VWS V13.01,2013-01-20 19:51:00,
2013-01-20 13:56:00,-5.9,-10.0,30.71,NW,311,4.0,14.0,82,0.00,,---,0.00,VWS V13.01,2013-01-20 19:56:00,
2013-01-20 14:01:00,-5.5,-9.3,30.70,WNW,283,4.0,14.0,83,0.00,,---,0.00,VWS V13.01,2013-01-20 20:01:00,
2013-01-20 14:06:00,-5.2,-9.3,30.70,NW,309,3.0,12.0,82,0.00,,---,0.00,VWS V13.01,2013-01-20 20:06:00,
2013-01-20 14:12:00,-5.2,-9.3,30.70,WNW,293,5.0,15.0,82,0.00,,---,0.00,VWS V13.01,2013-01-20 20:12:00,
2013-01-20 14:17:00,-4.9,-9.0,30.69,West,276,7.0,11.0,82,0.00,,---,0.00,VWS V13.01,2013-01-20 20:17:00,
2013-01-20 14:22:00,-4.8,-8.9,30.69,WSW,256,6.0,12.0,82,0.00,,---,0.00,VWS V13.01,2013-01-20 20:22:00,
2013-01-20 14:27:00,-4.5,-8.6,30.69,WNW,298,2.0,13.0,82,0.00,,---,0.00,VWS V13.01,2013-01-20 20:27:00,
2013-01-20 14:33:00,-4.3,-8.4,30.69,WSW,257,7.0,12.0,82,0.00,,---,0.00,VWS V13.01,2013-01-20 20:33:00,
2013-01-20 14:38:00,-4.6,-8.9,30.69,West,277,5.0,14.0,81,0.00,,---,0.00,VWS V13.01,2013-01-20 20:38:00,
2013-01-20 14:43:00,-4.9,-9.0,30.69,WNW,294,6.0,14.0,82,0.00,,---,0.00,VWS V13.01,2013-01-20 20:43:00,
2013-01-20 14:48:00,-5.0,-9.1,30.69,WNW,290,3.0,11.0,82,0.00,,---,0.00,VWS V13.01,2013-01-20 20:48:00,
2013-01-20 14:53:00,-4.8,-8.9,30.69,West,271,6.0,11.0,82,0.00,,---,0.00,VWS V13.01,2013-01-20 20:53:00,
2013-01-20 14:59:00,-4.8,-8.9,30.69,West,281,9.0,12.0,82,0.00,,---,0.00,VWS V13.01,2013-01-20 20:59:00,
2013-01-20 15:04:00,-4.7,-8.8,30.69,WNW,288,4.0,17.0,82,0.00,,---,0.00,VWS V13.01,2013-01-20 21:04:00,
2013-01-20 15:09:00,-5.0,-9.3,30.69,WNW,295,2.0,17.0,81,0.00,,---,0.00,VWS V13.01,2013-01-20 21:09:00,
2013-01-20 15:14:00,-4.8,-8.9,30.69,NW,304,6.0,17.0,82,0.00,,---,0.00,VWS V13.01,2013-01-20 21:14:00,
2013-01-20 15:19:00,-4.8,-8.9,30.71,West,281,5.0,6.0,82,0.00,,---,0.00,VWS V13.01,2013-01-20 21:19:00,
2013-01-20 15:24:00,-4.9,-9.0,30.71,West,272,3.0,12.0,82,0.00,,---,0.00,VWS V13.01,2013-01-20 21:24:00,
2013-01-20 15:29:00,-5.2,-9.5,30.71,SW,229,4.0,12.0,81,0.00,,---,0.00,VWS V13.01,2013-01-20 21:29:00,
2013-01-20 15:34:00,-5.5,-9.8,30.71,West,271,9.0,11.0,81,0.00,,---,0.00,VWS V13.01,2013-01-20 21:34:00,
2013-01-20 15:39:00,-5.8,-10.1,30.71,West,261,3.0,11.0,81,0.00,,---,0.00,VWS V13.01,2013-01-20 21:39:00,
2013-01-20 15:45:00,-5.9,-10.0,30.71,WNW,288,3.0,11.0,82,0.00,,---,0.00,VWS V13.01,2013-01-20 21:45:00,
2013-01-20 15:50:00,-5.9,-10.0,30.71,West,274,3.0,8.0,82,0.00,,---,0.00,VWS V13.01,2013-01-20 21:50:00,
2013-01-20 15:55:00,-5.9,-10.0,30.71,WSW,257,3.0,11.0,82,0.00,,---,0.00,VWS V13.01,2013-01-20 21:55:00,
2013-01-20 16:00:00,-6.1,-10.1,30.71,WSW,247,2.0,11.0,82,0.00,,---,0.00,VWS V13.01,2013-01-20 22:00:00,
2013-01-20 16:05:00,-6.2,-10.2,30.71,West,261,3.0,6.0,82,0.00,,---,0.00,VWS V13.01,2013-01-20 22:05:00,
2013-01-20 16:10:00,-6.4,-10.4,30.71,West,265,3.0,10.0,82,0.00,,---,0.00,VWS V13.01,2013-01-20 22:10:00,
2013-01-20 16:15:00,-6.6,-10.6,30.71,West,273,3.0,10.0,82,0.00,,---,0.00,VWS V13.01,2013-01-20 22:15:00,
2013-01-20 16:20:00,-7.0,-11.0,30.72,West,278,1.0,11.0,82,0.00,,---,0.00,VWS V13.01,2013-01-20 22:20:00,
2013-01-20 16:25:00,-7.2,-11.2,30.72,West,277,0.0,11.0,82,0.00,,---,0.00,VWS V13.01,2013-01-20 22:25:00,
2013-01-20 16:30:00,-7.5,-11.5,30.72,West,270,3.0,11.0,82,0.00,,---,0.00,VWS V13.01,2013-01-20 22:30:00,
2013-01-20 16:35:00,-7.7,-11.7,30.74,West,275,4.0,6.0,82,0.00,,---,0.00,VWS V13.01,2013-01-20 22:35:00,
2013-01-20 16:40:00,-8.0,-12.0,30.74,West,279,5.0,7.0,82,0.00,,---,0.00,VWS V13.01,2013-01-20 22:40:00,
2013-01-20 16:45:00,-8.2,-12.2,30.74,West,281,3.0,11.0,82,0.00,,---,0.00,VWS V13.01,2013-01-20 22:45:00,
2013-01-20 16:50:00,-8.4,-12.4,30.74,West,268,2.0,5.0,82,0.00,,---,0.00,VWS V13.01,2013-01-20 22:50:00,
2013-01-20 16:55:00,-8.6,-12.6,30.74,WSW,246,7.0,10.0,82,0.00,,---,0.00,VWS V13.01,2013-01-20 22:55:00,
2013-01-20 17:00:00,-8.8,-12.8,30.74,West,271,1.0,10.0,82,0.00,,---,0.00,VWS V13.01,2013-01-20 23:00:00,
2013-01-20 17:05:00,-9.1,-13.1,30.73,West,265,2.0,6.0,82,0.00,,---,0.00,VWS V13.01,2013-01-20 23:05:00,
2013-01-20 17:11:00,-9.3,-13.3,30.73,West,261,1.0,6.0,82,0.00,,---,0.00,VWS V13.01,2013-01-20 23:11:00,
2013-01-20 17:16:00,-9.4,-13.4,30.75,West,269,5.0,6.0,82,0.00,,---,0.00,VWS V13.01,2013-01-20 23:16:00,
2013-01-20 17:21:00,-9.5,-13.5,30.75,WNW,283,4.0,11.0,82,0.00,,---,0.00,VWS V13.01,2013-01-20 23:21:00,
2013-01-20 17:26:00,-9.5,-13.5,30.75,WNW,283,5.0,12.0,82,0.00,,---,0.00,VWS V13.01,2013-01-20 23:26:00,
2013-01-20 17:31:00,-9.5,-13.5,30.74,West,275,3.0,12.0,82,0.00,,---,0.00,VWS V13.01,2013-01-20 23:31:00,
2013-01-20 17:36:00,-9.6,-13.6,30.74,West,265,9.0,11.0,82,0.00,,---,0.00,VWS V13.01,2013-01-20 23:36:00,
2013-01-20 17:41:00,-9.7,-13.7,30.74,West,269,3.0,11.0,82,0.00,,---,0.00,VWS V13.01,2013-01-20 23:41:00,
2013-01-20 17:47:00,-9.8,-13.8,30.74,West,259,5.0,5.0,82,0.00,,---,0.00,VWS V13.01,2013-01-20 23:47:00,
2013-01-20 17:52:00,-10.0,-14.0,30.74,WNW,282,2.0,7.0,82,0.00,,---,0.00,VWS V13.01,2013-01-20 23:52:00,
2013-01-20 17:57:00,-10.1,-14.1,30.74,West,279,5.0,11.0,82,0.00,,---,0.00,VWS V13.01,2013-01-20 23:57:00,
2013-01-20 18:02:00,-10.1,-14.1,30.73,West,265,4.0,4.0,82,0.00,,---,0.00,VWS V13.01,2013-01-21 00:02:00,
2013-01-20 18:07:00,-10.3,-14.3,30.73,West,270,1.0,9.0,82,0.00,,---,0.00,VWS V13.01,2013-01-21 00:07:00,
2013-01-20 18:12:00,-10.3,-14.3,30.73,West,270,6.0,10.0,82,0.00,,---,0.00,VWS V13.01,2013-01-21 00:12:00,
2013-01-20 18:17:00,-10.3,-14.3,30.73,West,264,1.0,6.0,82,0.00,,---,0.00,VWS V13.01,2013-01-21 00:17:00,
2013-01-20 18:22:00,-10.4,-14.4,30.73,West,266,6.0,10.0,82,0.00,,---,0.00,VWS V13.01,2013-01-21 00:22:00,
2013-01-20 18:27:00,-10.5,-14.5,30.73,West,271,2.0,11.0,82,0.00,,---,0.00,VWS V13.01,2013-01-21 00:27:00,
2013-01-20 18:33:00,-10.6,-14.6,30.74,WNW,289,2.0,6.0,82,0.00,,---,0.00,VWS V13.01,2013-01-21 00:33:00,
2013-01-20 18:38:00,-10.7,-14.7,30.74,West,273,3.0,7.0,82,0.00,,---,0.00,VWS V13.01,2013-01-21 00:38:00,
2013-01-20 18:43:00,-10.8,-14.8,30.74,West,276,0.0,8.0,82,0.00,,---,0.00,VWS V13.01,2013-01-21 00:43:00,
2013-01-20 18:48:00,-10.9,-14.9,30.75,WNW,282,3.0,3.0,82,0.00,,---,0.00,VWS V13.01,2013-01-21 00:48:00,
2013-01-20 18:53:00,-10.9,-14.9,30.75,West,273,3.0,10.0,82,0.00,,---,0.00,VWS V13.01,2013-01-21 00:53:00,
2013-01-20 18:58:00,-11.1,-15.1,30.75,West,272,4.0,10.0,82,0.00,,---,0.00,VWS V13.01,2013-01-21 00:58:00,
2013-01-20 19:03:00,-11.2,-15.1,30.75,West,278,4.0,6.0,82,0.00,,---,0.00,VWS V13.01,2013-01-21 01:03:00,
2013-01-20 19:08:00,-11.3,-15.2,30.75,WSW,254,6.0,10.0,82,0.00,,---,0.00,VWS V13.01,2013-01-21 01:08:00,
2013-01-20 19:13:00,-11.5,-15.4,30.75,WNW,288,4.0,10.0,82,0.00,,---,0.00,VWS V13.01,2013-01-21 01:13:00,
2013-01-20 19:18:00,-11.6,-15.5,30.74,WNW,285,2.0,10.0,82,0.00,,---,0.00,VWS V13.01,2013-01-21 01:18:00,
2013-01-20 19:23:00,-11.6,-15.5,30.74,West,277,5.0,10.0,82,0.00,,---,0.00,VWS V13.01,2013-01-21 01:23:00,
2013-01-20 19:28:00,-11.5,-15.4,30.74,WNW,284,6.0,10.0,82,0.00,,---,0.00,VWS V13.01,2013-01-21 01:28:00,
2013-01-20 19:33:00,-11.5,-15.4,30.74,West,278,3.0,11.0,82,0.00,,---,0.00,VWS V13.01,2013-01-21 01:33:00,
2013-01-20 19:38:00,-11.5,-15.4,30.74,West,281,4.0,11.0,82,0.00,,---,0.00,VWS V13.01,2013-01-21 01:38:00,
2013-01-20 19:44:00,-11.6,-15.5,30.74,NW,311,10.0,11.0,82,0.00,,---,0.00,VWS V13.01,2013-01-21 01:44:00,
2013-01-20 19:49:00,-11.6,-15.5,30.73,WNW,283,1.0,9.0,82,0.00,,---,0.00,VWS V13.01,2013-01-21 01:49:00,
2013-01-20 19:54:00,-11.5,-15.4,30.73,NW,307,3.0,14.0,82,0.00,,---,0.00,VWS V13.01,2013-01-21 01:54:00,
2013-01-20 19:59:00,-11.5,-15.4,30.73,WNW,286,2.0,14.0,82,0.00,,---,0.00,VWS V13.01,2013-01-21 01:59:00,
2013-01-20 20:04:00,-11.4,-15.4,30.73,West,281,10.0,13.0,82,0.00,,---,0.00,VWS V13.01,2013-01-21 02:04:00,
2013-01-20 20:09:00,-11.4,-15.4,30.73,West,275,7.0,14.0,82,0.00,,---,0.00,VWS V13.01,2013-01-21 02:09:00,
2013-01-20 20:14:00,-11.4,-15.4,30.73,West,260,3.0,14.0,82,0.00,,---,0.00,VWS V13.01,2013-01-21 02:14:00,
2013-01-20 20:19:00,-11.3,-15.2,30.70,WNW,283,3.0,12.0,82,0.00,,---,0.00,VWS V13.01,2013-01-21 02:19:00,
2013-01-20 20:24:00,-11.3,-15.2,30.70,West,279,8.0,12.0,82,0.00,,---,0.00,VWS V13.01,2013-01-21 02:24:00,
2013-01-20 20:29:00,-11.3,-15.2,30.70,West,262,5.0,15.0,82,0.00,,---,0.00,VWS V13.01,2013-01-21 02:29:00,
2013-01-20 20:34:00,-11.2,-15.1,30.70,WNW,297,2.0,14.0,82,0.00,,---,0.00,VWS V13.01,2013-01-21 02:34:00,
2013-01-20 20:39:00,-11.2,-15.1,30.70,NW,313,6.0,14.0,82,0.00,,---,0.00,VWS V13.01,2013-01-21 02:39:00,
2013-01-20 20:45:00,-11.2,-15.1,30.70,NW,313,11.0,15.0,82,0.00,,---,0.00,VWS V13.01,2013-01-21 02:45:00,
2013-01-20 20:50:00,-11.2,-15.1,30.69,WSW,249,3.0,13.0,82,0.00,,---,0.00,VWS V13.01,2013-01-21 02:50:00,
2013-01-20 20:55:00,-11.1,-15.1,30.69,WNW,286,9.0,15.0,82,0.00,,---,0.00,VWS V13.01,2013-01-21 02:55:00,
2013-01-20 21:00:00,-11.2,-15.1,30.69,NW,314,6.0,15.0,82,0.00,,---,0.00,VWS V13.01,2013-01-21 03:00:00,
2013-01-20 21:05:00,-11.1,-15.1,30.68,WNW,292,6.0,18.0,82,0.00,,---,0.00,VWS V13.01,2013-01-21 03:05:00,
2013-01-20 21:10:00,-11.1,-15.1,30.68,WNW,287,9.0,18.0,82,0.00,,---,0.00,VWS V13.01,2013-01-21 03:10:00,
2013-01-20 21:16:00,-11.2,-15.1,30.66,NW,316,4.0,18.0,82,0.00,,---,0.00,VWS V13.01,2013-01-21 03:16:00,
2013-01-20 21:21:00,-11.3,-15.2,30.66,WNW,294,9.0,15.0,82,0.00,,---,0.00,VWS V13.01,2013-01-21 03:21:00,
2013-01-20 21:26:00,-11.5,-15.4,30.66,WSW,258,2.0,15.0,82,0.00,,---,0.00,VWS V13.01,2013-01-21 03:26:00,
2013-01-20 21:31:00,-11.5,-15.4,30.68,NW,308,10.0,15.0,82,0.00,,---,0.00,VWS V13.01,2013-01-21 03:31:00,
2013-01-20 21:36:00,-11.6,-15.8,30.68,WNW,288,7.0,12.0,81,0.00,,---,0.00,VWS V13.01,2013-01-21 03:36:00,
2013-01-20 21:42:00,-11.7,-15.9,30.68,WNW,298,1.0,14.0,81,0.00,,---,0.00,VWS V13.01,2013-01-21 03:42:00,
2013-01-20 21:47:00,-11.8,-16.0,30.67,West,270,9.0,10.0,81,0.00,,---,0.00,VWS V13.01,2013-01-21 03:47:00,
2013-01-20 21:52:00,-11.9,-16.1,30.67,NNW,327,5.0,13.0,81,0.00,,---,0.00,VWS V13.01,2013-01-21 03:52:00,
2013-01-20 21:57:00,-12.0,-16.2,30.67,WNW,284,6.0,13.0,81,0.00,,---,0.00,VWS V13.01,2013-01-21 03:57:00,
2013-01-20 22:02:00,-12.1,-16.3,30.67,WNW,293,6.0,12.0,81,0.00,,---,0.00,VWS V13.01,2013-01-21 04:02:00,
2013-01-20 22:08:00,-12.2,-16.1,30.67,WNW,290,5.0,13.0,82,0.00,,---,0.00,VWS V13.01,2013-01-21 04:08:00,
2013-01-20 22:13:00,-12.3,-16.5,30.67,WNW,289,3.0,13.0,81,0.00,,---,0.00,VWS V13.01,2013-01-21 04:13:00,
2013-01-20 22:18:00,-12.4,-16.6,30.65,West,279,4.0,10.0,81,0.00,,---,0.00,VWS V13.01,2013-01-21 04:18:00,
2013-01-20 22:23:00,-12.4,-16.6,30.65,WNW,302,3.0,12.0,81,0.00,,---,0.00,VWS V13.01,2013-01-21 04:23:00,
2013-01-20 22:28:00,-12.4,-16.6,30.65,WNW,291,5.0,12.0,81,0.00,,---,0.00,VWS V13.01,2013-01-21 04:28:00,
2013-01-20 22:33:00,-12.5,-16.7,30.65,WNW,296,3.0,10.0,81,0.00,,---,0.00,VWS V13.01,2013-01-21 04:33:00,
2013-01-20 22:38:00,-12.5,-16.7,30.65,WNW,300,2.0,13.0,81,0.00,,---,0.00,VWS V13.01,2013-01-21 04:38:00,
2013-01-20 22:43:00,-12.6,-16.8,30.65,West,259,5.0,13.0,81,0.00,,---,0.00,VWS V13.01,2013-01-21 04:43:00,
2013-01-20 22:48:00,-12.6,-16.8,30.65,West,272,6.0,14.0,81,0.00,,---,0.00,VWS V13.01,2013-01-21 04:48:00,
2013-01-20 22:54:00,-12.7,-16.9,30.65,West,277,2.0,14.0,81,0.00,,---,0.00,VWS V13.01,2013-01-21 04:54:00,
2013-01-20 22:59:00,-12.8,-17.0,30.65,West,280,8.0,14.0,81,0.00,,---,0.00,VWS V13.01,2013-01-21 04:59:00,
2013-01-20 23:01:00,-12.9,-17.1,30.65,WNW,291,2.0,14.0,81,0.00,,---,0.00,VWS V13.01,2013-01-21 05:01:00,
2013-01-20 23:03:00,-12.9,-17.1,30.65,WNW,285,3.0,8.0,81,0.00,,---,0.00,VWS V13.01,2013-01-21 05:03:00,
2013-01-20 23:04:00,-12.9,-17.1,30.65,West,280,3.0,8.0,81,0.00,,---,0.00,VWS V13.01,2013-01-21 05:04:00,
2013-01-20 23:05:00,-13.0,-17.1,30.65,WNW,284,3.0,8.0,81,0.00,,---,0.00,VWS V13.01,2013-01-21 05:05:00,
2013-01-20 23:10:00,-13.1,-17.2,30.65,West,275,2.0,13.0,81,0.00,,---,0.00,VWS V13.01,2013-01-21 05:10:00,
2013-01-20 23:15:00,-13.2,-17.4,30.65,West,280,3.0,13.0,81,0.00,,---,0.00,VWS V13.01,2013-01-21 05:15:00,
2013-01-20 23:20:00,-13.3,-17.5,30.62,West,271,8.0,14.0,81,0.00,,---,0.00,VWS V13.01,2013-01-21 05:20:00,
2013-01-20 23:25:00,-13.5,-17.6,30.62,WNW,286,2.0,14.0,81,0.00,,---,0.00,VWS V13.01,2013-01-21 05:25:00,
2013-01-20 23:31:00,-13.6,-17.7,30.63,West,259,9.0,14.0,81,0.00,,---,0.00,VWS V13.01,2013-01-21 05:31:00,
2013-01-20 23:36:00,-13.8,-17.9,30.63,West,273,9.0,12.0,81,0.00,,---,0.00,VWS V13.01,2013-01-21 05:36:00,
2013-01-20 23:42:00,-14.0,-18.1,30.63,NW,309,3.0,12.0,81,0.00,,---,0.00,VWS V13.01,2013-01-21 05:42:00,
2013-01-20 23:47:00,-14.1,-18.2,30.63,West,274,3.0,5.0,81,0.00,,---,0.00,VWS V13.01,2013-01-21 05:47:00,
2013-01-20 23:52:00,-14.2,-18.3,30.63,West,277,6.0,12.0,81,0.00,,---,0.00,VWS V13.01,2013-01-21 05:52:00,
2013-01-20 23:57:00,-14.3,-18.4,30.63,WNW,296,4.0,12.0,81,0.00,,---,0.00,VWS V13.01,2013-01-21 05:57:00,